createdAt,value
2019-03-18T00:01:07.113Z,4.59
2019-03-18T00:03:35.562Z,4.37
2019-03-18T00:06:23.365Z,4.43
2019-03-18T00:09:11.130Z,4.61
2019-03-18T00:14:13.278Z,4.72
2019-03-18T00:16:41.701Z,4.49
2019-03-18T00:19:10.181Z,4.39
2019-03-18T00:21:38.629Z,4.35
2019-03-18T00:24:07.077Z,4.32
2019-03-18T00:29:09.153Z,4.27
2019-03-18T00:31:37.664Z,4.17
2019-03-18T00:34:06.114Z,4.08
2019-03-18T00:36:34.567Z,4.35
2019-03-18T00:41:37.452Z,4.24
2019-03-18T00:46:40.313Z,4.23
2019-03-18T00:49:08.761Z,4.09
2019-03-18T00:51:37.236Z,4.28
2019-03-18T00:54:05.684Z,4.20
2019-03-18T00:56:34.141Z,4.21
2019-03-18T00:59:02.661Z,4.22
2019-03-18T01:01:31.193Z,4.16
2019-03-18T01:03:59.657Z,4.45
2019-03-18T01:06:47.433Z,4.26
2019-03-18T01:09:15.882Z,4.34
2019-03-18T01:11:44.329Z,4.30
2019-03-18T01:14:12.837Z,4.63
2019-03-18T01:16:41.291Z,4.28
2019-03-18T01:19:09.741Z,4.54
2019-03-18T01:21:38.233Z,4.20
2019-03-18T01:24:06.689Z,4.23
2019-03-18T01:26:35.135Z,4.10
2019-03-18T01:29:03.659Z,4.24
2019-03-18T01:31:32.064Z,4.20
2019-03-18T01:34:00.513Z,4.11
2019-03-18T01:36:29.000Z,4.57
2019-03-18T01:38:57.461Z,4.19
2019-03-18T01:41:25.897Z,4.56
2019-03-18T01:46:28.233Z,4.24
2019-03-18T01:51:31.272Z,4.16
2019-03-18T01:56:34.178Z,3.98
2019-03-18T01:59:02.640Z,3.84
2019-03-18T02:04:05.026Z,3.85
2019-03-18T02:06:33.583Z,3.77
2019-03-18T02:11:36.486Z,3.58
2019-03-18T02:14:05.054Z,3.44
2019-03-18T02:16:33.507Z,3.25
2019-03-18T02:19:21.300Z,3.15
2019-03-18T02:21:49.745Z,3.04
2019-03-18T02:24:18.234Z,3.00
2019-03-18T02:27:06.114Z,2.87
2019-03-18T02:29:34.559Z,2.81
2019-03-18T02:32:03.070Z,2.77
2019-03-18T02:34:31.582Z,2.68
2019-03-18T02:37:19.269Z,2.65
2019-03-18T02:42:28.424Z,2.73
2019-03-18T02:44:56.871Z,2.73
2019-03-18T02:47:25.313Z,2.67
2019-03-18T02:52:27.423Z,2.71
2019-03-18T02:54:55.938Z,2.81
2019-03-18T02:57:43.864Z,2.95
2019-03-18T03:00:52.226Z,2.98
2019-03-18T03:03:20.775Z,3.01
2019-03-18T03:05:49.239Z,3.14
2019-03-18T03:08:17.684Z,3.26
2019-03-18T03:10:46.526Z,3.42
2019-03-18T03:13:14.995Z,3.67
2019-03-18T03:15:43.535Z,3.65
2019-03-18T03:18:12.160Z,3.79
2019-03-18T03:20:40.676Z,3.78
2019-03-18T03:23:09.187Z,3.89
2019-03-18T03:25:37.674Z,3.81
2019-03-18T03:28:06.136Z,3.72
2019-03-18T03:30:34.610Z,3.75
2019-03-18T03:33:03.259Z,3.75
2019-03-18T03:35:31.710Z,3.81
2019-03-18T03:38:00.157Z,3.78
2019-03-18T03:40:28.642Z,3.72
2019-03-18T03:42:57.110Z,3.74
2019-03-18T03:45:25.574Z,3.76
2019-03-18T03:47:54.048Z,3.74
2019-03-18T03:50:22.515Z,3.75
2019-03-18T03:52:51.036Z,3.71
2019-03-18T03:58:13.004Z,3.71
2019-03-18T04:00:41.574Z,3.79
2019-03-18T04:06:37.488Z,3.83
2019-03-18T04:09:45.857Z,3.75
2019-03-18T04:12:33.533Z,3.82
2019-03-18T04:15:02.002Z,3.92
2019-03-18T04:17:30.435Z,3.97
2019-03-18T04:19:59.025Z,4.04
2019-03-18T04:22:27.438Z,4.11
2019-03-18T04:24:55.890Z,4.20
2019-03-18T04:27:24.984Z,4.25
2019-03-18T04:30:13.760Z,4.28
2019-03-18T04:33:01.506Z,4.20
2019-03-18T04:35:29.956Z,4.24
2019-03-18T04:37:58.406Z,4.16
2019-03-18T04:40:26.893Z,4.07
2019-03-18T04:42:55.344Z,3.94
2019-03-18T04:45:23.793Z,3.97
2019-03-18T04:47:52.310Z,3.98
2019-03-18T04:50:39.891Z,4.03
2019-03-18T04:53:08.398Z,3.97
2019-03-18T04:55:36.845Z,3.88
2019-03-18T04:58:05.297Z,3.77
2019-03-18T05:03:07.518Z,3.88
2019-03-18T05:05:35.965Z,3.82
2019-03-18T05:10:39.014Z,3.85
2019-03-18T05:15:40.985Z,4.04
2019-03-18T05:18:09.438Z,3.88
2019-03-18T05:23:11.668Z,3.90
2019-03-18T05:25:40.117Z,3.83
2019-03-18T05:28:08.601Z,3.63
2019-03-18T05:30:37.052Z,3.65
2019-03-18T05:33:05.502Z,3.36
2019-03-18T05:35:53.244Z,3.48
2019-03-18T05:38:21.684Z,3.62
2019-03-18T05:40:50.133Z,3.75
2019-03-18T05:43:18.621Z,3.76
2019-03-18T05:45:47.089Z,3.85
2019-03-18T05:48:15.541Z,3.86
2019-03-18T05:53:18.325Z,3.92
2019-03-18T05:56:06.123Z,3.90
2019-03-18T05:58:34.569Z,3.86
2019-03-18T06:01:03.032Z,4.05
2019-03-18T06:03:31.509Z,4.05
2019-03-18T06:05:59.957Z,4.05
2019-03-18T06:08:28.410Z,4.28
2019-03-18T06:10:56.896Z,4.32
2019-03-18T06:13:25.348Z,4.35
2019-03-18T06:15:53.798Z,4.26
2019-03-18T06:20:56.623Z,4.34
2019-03-18T06:23:44.350Z,4.41
2019-03-18T06:26:12.800Z,4.42
2019-03-18T06:28:41.251Z,4.50
2019-03-18T06:33:43.958Z,4.59
2019-03-18T06:36:31.598Z,4.59
2019-03-18T06:41:33.752Z,4.77
2019-03-18T06:44:02.211Z,4.81
2019-03-18T06:46:30.687Z,5.01
2019-03-18T06:48:59.135Z,4.99
2019-03-18T06:51:27.586Z,5.13
2019-03-18T06:53:56.076Z,5.32
2019-03-18T06:56:24.522Z,5.64
2019-03-18T06:58:52.967Z,5.71
2019-03-18T07:01:40.659Z,5.82
2019-03-18T07:04:28.306Z,5.91
2019-03-18T07:09:30.601Z,6.10
2019-03-18T07:11:59.050Z,5.83
2019-03-18T07:17:01.930Z,5.67
2019-03-18T07:22:23.634Z,5.82
2019-03-18T07:24:52.156Z,5.91
2019-03-18T07:27:20.588Z,5.98
2019-03-18T07:29:49.042Z,5.97
2019-03-18T07:32:17.556Z,6.33
2019-03-18T07:34:46.016Z,6.13
2019-03-18T07:37:14.454Z,6.10
2019-03-18T07:40:02.322Z,6.14
2019-03-18T07:42:30.773Z,6.37
2019-03-18T07:44:59.230Z,6.29
2019-03-18T07:50:01.948Z,6.23
2019-03-18T07:52:49.697Z,6.22
2019-03-18T07:55:18.146Z,6.25
2019-03-18T07:58:05.919Z,6.23
2019-03-18T08:00:53.793Z,6.40
2019-03-18T08:05:56.899Z,6.80
2019-03-18T08:10:59.457Z,7.15
2019-03-18T08:13:27.910Z,7.08
2019-03-18T08:16:15.525Z,6.96
2019-03-18T08:18:43.973Z,6.66
2019-03-18T08:21:31.650Z,6.54
2019-03-18T08:24:19.295Z,6.77
2019-03-18T08:26:47.782Z,6.64
2019-03-18T08:29:16.238Z,6.53
2019-03-18T08:31:44.689Z,6.52
2019-03-18T08:34:13.205Z,6.52
2019-03-18T08:36:41.678Z,6.50
2019-03-18T08:39:10.121Z,6.64
2019-03-18T08:41:58.005Z,6.58
2019-03-18T08:44:26.534Z,6.53
2019-03-18T08:46:54.983Z,6.76
2019-03-18T08:51:57.734Z,6.86
2019-03-18T08:54:26.184Z,6.87
2019-03-18T08:57:13.862Z,7.09
2019-03-18T08:59:42.310Z,6.96
2019-03-18T09:02:10.758Z,6.86
2019-03-18T09:04:39.318Z,6.91
2019-03-18T09:07:07.840Z,6.96
2019-03-18T09:09:36.376Z,7.04
2019-03-18T09:12:05.070Z,7.24
2019-03-18T09:14:33.509Z,7.45
2019-03-18T09:17:01.959Z,7.55
2019-03-18T09:19:30.607Z,7.37
2019-03-18T09:21:59.060Z,7.23
2019-03-18T09:24:27.576Z,7.27
2019-03-18T09:27:02.390Z,7.16
2019-03-18T09:29:26.442Z,7.39
2019-03-18T09:31:54.896Z,7.39
2019-03-18T09:34:23.402Z,7.58
2019-03-18T09:36:51.898Z,7.59
2019-03-18T09:39:20.347Z,7.72
2019-03-18T09:41:48.863Z,7.79
2019-03-18T09:44:17.319Z,7.72
2019-03-18T09:46:45.789Z,8.19
2019-03-18T09:49:21.442Z,7.99
2019-03-18T09:51:44.767Z,7.90
2019-03-18T09:54:13.481Z,7.91
2019-03-18T09:56:42.121Z,8.53
2019-03-18T09:59:10.578Z,8.41
2019-03-18T10:01:39.040Z,8.74
2019-03-18T10:04:07.523Z,8.77
2019-03-18T10:06:35.969Z,8.80
2019-03-18T10:09:06.703Z,8.82
2019-03-18T10:11:35.185Z,8.80
2019-03-18T10:14:03.632Z,8.41
2019-03-18T10:16:32.150Z,8.56
2019-03-18T10:19:00.667Z,8.03
2019-03-18T10:21:29.187Z,8.31
2019-03-18T10:23:57.643Z,8.10
2019-03-18T10:26:26.217Z,8.18
2019-03-18T10:28:54.670Z,8.19
2019-03-18T10:31:23.192Z,8.39
2019-03-18T10:33:51.713Z,8.35
2019-03-18T10:36:20.176Z,8.28
2019-03-18T10:38:48.629Z,8.03
2019-03-18T10:41:17.599Z,7.91
2019-03-18T10:43:46.113Z,8.06
2019-03-18T10:46:14.638Z,8.46
2019-03-18T10:48:43.142Z,8.75
2019-03-18T10:51:11.674Z,8.75
2019-03-18T10:53:40.156Z,8.42
2019-03-18T10:56:08.643Z,8.67
2019-03-18T10:58:37.066Z,8.33
2019-03-18T11:01:05.514Z,8.13
2019-03-18T11:03:34.070Z,8.16
2019-03-18T11:06:02.538Z,8.02
2019-03-18T11:08:31.016Z,7.81
2019-03-18T11:10:59.943Z,7.84
2019-03-18T11:13:28.392Z,8.23
2019-03-18T11:15:56.921Z,8.48
2019-03-18T11:18:25.479Z,8.28
2019-03-18T11:20:54.066Z,8.25
2019-03-18T11:23:22.609Z,8.19
2019-03-18T11:25:51.117Z,8.25
2019-03-18T11:28:19.569Z,8.76
2019-03-18T11:30:48.095Z,9.09
2019-03-18T11:33:16.586Z,9.25
2019-03-18T11:35:45.054Z,9.29
2019-03-18T11:38:13.515Z,9.26
2019-03-18T11:40:42.123Z,9.10
2019-03-18T11:43:10.583Z,9.32
2019-03-18T11:45:39.084Z,9.34
2019-03-18T11:48:07.646Z,9.10
2019-03-18T11:50:36.168Z,9.03
2019-03-18T11:53:13.878Z,9.25
2019-03-18T11:55:35.688Z,9.17
2019-03-18T11:58:04.265Z,8.86
2019-03-18T12:00:32.835Z,8.82
2019-03-18T12:03:01.390Z,8.90
2019-03-18T12:05:29.979Z,8.60
2019-03-18T12:07:58.436Z,9.01
2019-03-18T12:10:27.079Z,8.90
2019-03-18T12:12:55.637Z,8.72
2019-03-18T12:15:25.827Z,8.82
2019-03-18T12:17:54.552Z,8.84
2019-03-18T12:20:25.491Z,9.02
2019-03-18T12:22:53.177Z,9.00
2019-03-18T12:25:22.167Z,9.09
2019-03-18T12:27:50.713Z,8.91
2019-03-18T12:30:20.673Z,9.19
2019-03-18T12:32:49.229Z,9.27
2019-03-18T12:35:17.825Z,9.26
2019-03-18T12:37:46.337Z,9.37
2019-03-18T12:40:18.393Z,9.32
2019-03-18T12:42:46.916Z,9.32
2019-03-18T12:45:16.421Z,8.76
2019-03-18T12:47:44.964Z,9.09
2019-03-18T12:50:15.823Z,9.14
2019-03-18T12:52:44.347Z,9.12
2019-03-18T12:55:13.304Z,8.98
2019-03-18T12:57:41.864Z,9.68
2019-03-18T13:00:16.051Z,9.52
2019-03-18T13:02:44.546Z,9.63
2019-03-18T13:05:13.552Z,9.69
2019-03-18T13:07:42.175Z,9.58
2019-03-18T13:10:15.711Z,9.64
2019-03-18T13:12:44.170Z,9.79
2019-03-18T13:15:14.955Z,9.62
2019-03-18T13:17:44.099Z,9.62
2019-03-18T13:20:20.221Z,9.69
2019-03-18T13:22:48.776Z,9.80
2019-03-18T13:25:17.288Z,9.92
2019-03-18T13:27:45.884Z,10.03
2019-03-18T13:30:16.275Z,10.05
2019-03-18T13:32:44.792Z,10.31
2019-03-18T13:35:13.730Z,10.07
2019-03-18T13:37:42.301Z,10.41
2019-03-18T13:40:15.465Z,10.33
2019-03-18T13:42:43.916Z,10.46
2019-03-18T13:45:17.602Z,10.81
2019-03-18T13:47:46.150Z,10.69
2019-03-18T13:50:18.808Z,10.58
2019-03-18T13:52:47.288Z,10.71
2019-03-18T13:55:15.925Z,10.56
2019-03-18T13:57:44.560Z,10.90
2019-03-18T14:00:16.396Z,11.03
2019-03-18T14:02:44.983Z,11.28
2019-03-18T14:05:13.586Z,11.29
2019-03-18T14:07:43.302Z,11.31
2019-03-18T14:10:23.347Z,11.15
2019-03-18T14:12:51.899Z,10.76
2019-03-18T14:15:22.570Z,10.81
2019-03-18T14:17:51.158Z,10.67
2019-03-18T14:20:22.699Z,10.05
2019-03-18T14:22:51.305Z,9.70
2019-03-18T14:25:19.822Z,9.29
2019-03-18T14:27:48.377Z,8.90
2019-03-18T14:30:23.744Z,8.85
2019-03-18T14:32:52.188Z,8.88
2019-03-18T14:35:22.180Z,8.96
2019-03-18T14:37:50.767Z,9.40
2019-03-18T14:40:25.789Z,9.42
2019-03-18T14:42:54.310Z,9.71
2019-03-18T14:45:23.599Z,9.83
2019-03-18T14:47:52.328Z,9.80
2019-03-18T14:50:21.221Z,9.85
2019-03-18T14:52:49.740Z,9.75
2019-03-18T14:55:18.969Z,9.69
2019-03-18T14:57:47.794Z,9.84
2019-03-18T15:00:26.923Z,9.63
2019-03-18T15:02:55.522Z,9.74
2019-03-18T15:05:23.970Z,9.69
2019-03-18T15:08:11.858Z,9.80
2019-03-18T15:10:40.308Z,9.76
2019-03-18T15:13:08.751Z,9.77
2019-03-18T15:18:10.902Z,9.97
2019-03-18T15:20:39.355Z,10.05
2019-03-18T15:23:27.231Z,9.77
2019-03-18T15:25:55.738Z,9.99
2019-03-18T15:28:24.192Z,10.07
2019-03-18T15:33:45.901Z,10.11
2019-03-18T15:38:48.734Z,10.33
2019-03-18T15:41:17.185Z,10.10
2019-03-18T15:46:20.045Z,10.15
2019-03-18T15:48:48.538Z,10.38
2019-03-18T15:51:16.995Z,10.04
2019-03-18T15:53:45.445Z,10.26
2019-03-18T15:56:13.933Z,10.18
2019-03-18T15:58:42.386Z,10.41
2019-03-18T16:01:10.845Z,10.42
2019-03-18T16:06:13.317Z,10.34
2019-03-18T16:08:41.770Z,10.19
2019-03-18T16:11:29.442Z,10.30
2019-03-18T16:13:57.900Z,10.63
2019-03-18T16:16:26.352Z,10.40
2019-03-18T16:18:54.834Z,10.60
2019-03-18T16:21:23.289Z,10.37
2019-03-18T16:23:51.739Z,10.55
2019-03-18T16:28:53.995Z,10.47
2019-03-18T16:31:22.531Z,10.41
2019-03-18T16:36:25.131Z,10.31
2019-03-18T16:38:53.651Z,10.16
2019-03-18T16:41:22.142Z,10.13
2019-03-18T16:43:50.602Z,10.39
2019-03-18T16:46:19.049Z,10.44
2019-03-18T16:51:21.522Z,10.11
2019-03-18T16:53:50.035Z,10.09
2019-03-18T16:56:18.478Z,10.01
2019-03-18T16:58:46.935Z,10.12
2019-03-18T17:01:15.414Z,10.03
2019-03-18T17:04:03.060Z,9.52
2019-03-18T17:06:31.562Z,9.14
2019-03-18T17:09:00.017Z,8.97
2019-03-18T17:11:28.472Z,8.69
2019-03-18T17:14:16.281Z,8.49
2019-03-18T17:16:44.730Z,8.42
2019-03-18T17:19:13.177Z,8.10
2019-03-18T17:24:16.086Z,8.26
2019-03-18T17:26:44.570Z,8.18
2019-03-18T17:29:13.027Z,7.65
2019-03-18T17:34:35.429Z,7.80
2019-03-18T17:37:23.110Z,7.52
2019-03-18T17:39:51.564Z,7.28
2019-03-18T17:42:20.018Z,7.17
2019-03-18T17:44:48.505Z,7.06
2019-03-18T17:47:36.146Z,6.93
2019-03-18T17:50:44.568Z,7.12
2019-03-18T17:53:13.085Z,6.86
2019-03-18T17:56:00.850Z,6.80
2019-03-18T17:58:29.301Z,6.66
2019-03-18T18:03:46.875Z,6.56
2019-03-18T18:06:15.343Z,6.45
2019-03-18T18:11:39.210Z,6.36
2019-03-18T18:14:07.657Z,6.44
2019-03-18T18:16:36.104Z,6.47
2019-03-18T18:21:57.318Z,6.50
2019-03-18T18:24:25.765Z,6.48
2019-03-18T18:26:54.212Z,6.37
2019-03-18T18:29:41.944Z,6.33
2019-03-18T18:32:10.388Z,6.38
2019-03-18T18:34:38.838Z,6.35
2019-03-18T18:37:26.643Z,6.39
2019-03-18T18:39:55.092Z,6.39
2019-03-18T18:42:23.541Z,6.35
2019-03-18T18:47:25.791Z,6.01
2019-03-18T18:49:54.252Z,6.13
2019-03-18T18:57:49.886Z,5.80
2019-03-18T19:00:58.259Z,5.59
2019-03-18T19:06:00.582Z,5.30
2019-03-18T19:08:29.024Z,5.35
2019-03-18T19:13:31.715Z,5.13
2019-03-18T19:16:00.201Z,5.15
2019-03-18T19:18:47.841Z,4.99
2019-03-18T19:21:16.360Z,4.85
2019-03-18T19:23:44.806Z,4.76
2019-03-18T19:26:13.252Z,4.79
2019-03-18T19:28:41.742Z,4.67
2019-03-18T19:31:10.188Z,4.76
2019-03-18T19:33:38.644Z,4.95
2019-03-18T19:36:26.469Z,4.88
2019-03-18T19:38:54.921Z,5.00
2019-03-18T19:41:23.370Z,5.01
2019-03-18T19:43:51.853Z,5.06
2019-03-18T19:46:20.302Z,4.97
2019-03-18T19:48:48.748Z,4.84
2019-03-18T19:51:36.755Z,5.19
2019-03-18T19:54:05.347Z,5.24
2019-03-18T19:56:33.803Z,5.36
2019-03-18T19:59:02.284Z,5.24
2019-03-18T20:01:30.739Z,5.26
2019-03-18T20:03:59.193Z,5.27
2019-03-18T20:06:27.672Z,5.28
2019-03-18T20:08:56.131Z,5.33
2019-03-18T20:11:43.874Z,5.26
2019-03-18T20:14:32.745Z,5.46
2019-03-18T20:19:35.638Z,5.22
2019-03-18T20:22:04.085Z,5.37
2019-03-18T20:27:06.581Z,5.34
2019-03-18T20:32:09.166Z,5.13
2019-03-18T20:34:37.643Z,5.06
2019-03-18T20:37:06.093Z,5.13
2019-03-18T20:39:34.541Z,5.56
2019-03-18T20:42:03.021Z,5.22
2019-03-18T20:44:31.468Z,5.22
2019-03-18T20:46:59.919Z,5.33
2019-03-18T20:49:28.435Z,5.44
2019-03-18T20:51:56.899Z,5.18
2019-03-18T20:54:25.350Z,5.14
2019-03-18T20:59:27.636Z,5.22
2019-03-18T21:02:15.507Z,5.32
2019-03-18T21:04:43.957Z,5.18
2019-03-18T21:07:12.404Z,5.06
2019-03-18T21:12:33.852Z,4.97
2019-03-18T21:15:21.467Z,4.94
2019-03-18T21:18:09.251Z,4.87
2019-03-18T21:23:30.674Z,4.95
2019-03-18T21:25:59.166Z,5.00
2019-03-18T21:28:27.622Z,4.97
2019-03-18T21:30:56.062Z,5.02
2019-03-18T21:33:24.547Z,5.04
2019-03-18T21:35:55.658Z,5.04
2019-03-18T21:38:23.163Z,4.99
2019-03-18T21:40:51.676Z,4.99
2019-03-18T21:46:27.182Z,5.00
2019-03-18T21:48:55.634Z,4.84
2019-03-18T21:51:24.080Z,4.62
2019-03-18T21:56:45.385Z,4.39
2019-03-18T21:59:13.900Z,4.26
2019-03-18T22:01:42.352Z,4.02
2019-03-18T22:04:29.956Z,3.95
2019-03-18T22:06:58.405Z,3.91
2019-03-18T22:09:26.859Z,3.60
2019-03-18T22:14:29.694Z,3.33
2019-03-18T22:16:58.173Z,3.46
2019-03-18T22:19:26.625Z,3.35
2019-03-18T22:21:55.073Z,3.41
2019-03-18T22:24:23.564Z,3.22
2019-03-18T22:27:11.208Z,3.12
2019-03-18T22:29:39.708Z,3.16
2019-03-18T22:32:08.157Z,3.14
2019-03-18T22:34:56.031Z,3.00
2019-03-18T22:37:24.477Z,2.92
2019-03-18T22:39:52.926Z,3.07
2019-03-18T22:42:21.415Z,2.88
2019-03-18T22:44:49.866Z,2.97
2019-03-18T22:47:18.316Z,3.04
2019-03-18T22:50:06.321Z,3.02
2019-03-18T22:52:34.834Z,2.97
2019-03-18T22:55:43.310Z,2.77
2019-03-18T22:58:11.762Z,2.97
2019-03-18T23:00:59.375Z,2.64
2019-03-18T23:03:27.832Z,2.84
2019-03-18T23:05:56.284Z,2.73
2019-03-18T23:08:43.890Z,2.67
2019-03-18T23:17:10.117Z,2.29
2019-03-18T23:19:38.572Z,2.28
2019-03-18T23:22:07.081Z,2.24
2019-03-18T23:24:35.538Z,2.14
2019-03-18T23:27:03.978Z,1.94
2019-03-18T23:29:32.467Z,2.15
2019-03-18T23:32:20.225Z,2.02
2019-03-18T23:34:48.704Z,1.94
2019-03-18T23:37:17.154Z,1.92
2019-03-18T23:39:45.602Z,2.02
2019-03-18T23:44:48.357Z,1.94
2019-03-18T23:47:16.842Z,1.72
2019-03-18T23:49:47.502Z,1.68
2019-03-18T23:52:34.688Z,1.64
2019-03-18T23:58:11.225Z,1.44
